WETTERDATEN

GESTERN
Time Temp. Taup. r.Fe. Windrich Windstärke Windböe Druck 1h Prec. 24h Prec.
00:15 11.2 8.1 81 90 0.3 0.8 1021.7 0.0000 0.0000
00:25 11.1 8 81 90 0.3 0.8 1021.7 0.0000 0.0000
00:35 10.9 8.1 83 90 0.3 1.1 1021.7 0.0000 0.0000
00:45 10.7 7.9 83 90 0.3 1.1 1021.8 0.0000 0.0000
00:55 10.5 7.9 84 90 0.3 1.1 1021.7 0.0000 0.0000
01:05 10.4 7.8 84 90 0.3 1.1 1021.7 0.0000 0.0000
01:15 10.2 7.6 84 60 0.3 1.1 1021.6 0.0000 0.0000
01:25 10.1 7.7 85 90 0.3 1.1 1021.5 0.0000 0.0000
01:35 10 7.8 86 90 0.3 1.1 1021.5 0.0000 0.0000
01:46 9.9 7.7 86 90 0.3 1.1 1021.5 0.0000 0.0000
01:55 9.7 7.6 87 90 0.3 0.8 1021.6 0.0000 0.0000
02:05 9.7 7.6 87 60 0.3 1.1 1021.6 0.0000 0.0000
02:16 9.6 7.7 88 90 0.3 1.1 1021.5 0.0000 0.0000
02:26 9.4 7.5 88 90 0.3 0.8 1021.5 0.0000 0.0000
02:36 9.4 7.5 88 90 0.3 0.8 1021.5 0.0000 0.0000
02:45 9.3 7.4 88 90 0.3 0.8 1021.6 0.0000 0.0000
02:56 9.1 7.2 88 90 0.3 0.8 1021.6 0.0000 0.0000
03:06 9.1 7.4 89 90 0.3 1.1 1021.5 0.0000 0.0000
03:16 9 7.3 89 90 0.3 0.8 1021.5 0.0000 0.0000
03:26 8.9 7.2 89 90 0.3 0.8 1021.6 0.0000 0.0000
03:36 8.8 7.3 90 90 0.3 0.8 1021.5 0.0000 0.0000
03:46 8.7 7.2 90 90 0.3 0.8 1021.1 0.0000 0.0000
03:56 8.6 7.1 90 90 0.3 0.8 1021.1 0.0000 0.0000
04:07 8.5 7 90 90 0.3 0.8 1021.1 0.0000 0.0000
04:16 8.4 7 91 90 0.3 0.8 1021 0.0000 0.0000
04:26 8.4 7 91 90 0.3 0.8 1021.1 0.0000 0.0000
04:37 8.3 6.9 91 90 0.3 0.8 1021.1 0.0000 0.0000
04:47 8.2 6.8 91 90 0.3 0.8 1021.1 0.0000 0.0000
04:57 8.1 6.7 91 90 0.3 1.1 1021.1 0.0000 0.0000
05:06 8 6.8 92 90 0.3 0.8 1021.2 0.0000 0.0000
05:17 7.9 6.7 92 90 0.3 0.8 1021.2 0.0000 0.0000
05:27 7.8 6.6 92 90 0.3 0.8 1021.2 0.0000 0.0000
05:37 7.7 6.5 92 90 0.3 0.8 1021.2 0.0000 0.0000
05:47 7.6 6.4 92 90 0.3 1.1 1021.2 0.0000 0.0000
05:57 7.5 6.3 92 90 0.3 1.1 1021.3 0.0000 0.0000
06:07 7.4 6.3 93 90 0.3 1.1 1021.3 0.0000 0.0000
06:17 7.5 6.4 93 90 0.3 1.1 1021.2 0.0000 0.0000
06:28 7.5 6.6 94 90 0.3 1.1 1021.2 0.0000 0.0000
06:37 7.7 6.8 94 90 0.3 1.1 1021.2 0.0000 0.0000
06:47 7.9 7.1 95 90 0.3 1.1 1021.3 0.0000 0.0000
06:58 8.2 7.4 95 90 0.3 1.1 1021.4 0.0000 0.0000
07:08 8.4 7.6 95 90 0.3 0.8 1021.3 0.0000 0.0000
07:18 8.7 7.9 95 90 0.3 0.8 1021.3 0.0000 0.0000
07:27 9.2 8.6 96 90 0.3 1.1 1021.4 0.0000 0.0000
07:38 9.7 8.9 95 90 0.3 1.1 1021.4 0.0000 0.0000
07:48 10.3 9.4 94 90 0.3 1.1 1021.4 0.0000 0.0000
07:58 10.8 9.6 92 90 0.3 1.1 1021.4 0.0000 0.0000
08:08 11.3 9.7 90 90 0.3 1.1 1021.5 0.0000 0.0000
08:18 11.9 10 88 90 0.3 1.7 1021.4 0.0000 0.0000
08:28 12.6 10.3 86 122 0.3 1.1 1021.4 0.0000 0.0000
08:38 13.2 10.4 83 90 0.3 1.4 1021.2 0.0000 0.0000
08:49 13.7 10.5 81 90 0.3 1.4 1021.2 0.0000 0.0000
08:59 14.3 10.7 79 110 0.8 1.7 1021.3 0.0000 0.0000
09:08 14.6 10.6 77 114 0.8 2.2 1021.1 0.0000 0.0000
09:19 14.9 10.7 76 90 0.8 1.1 1021 0.0000 0.0000
09:29 15.3 10.9 75 103 0.8 1.7 1021.1 0.0000 0.0000
09:39 16.3 11.7 74 90 0.8 1.4 1020.9 0.0000 0.0000
09:49 16.6 11.3 71 90 0.8 1.4 1020.7 0.0000 0.0000
09:59 16.8 11.3 70 57 0.8 1.4 1020.6 0.0000 0.0000
10:09 17.8 12.3 70 90 0.8 1.4 1020.6 0.0000 0.0000
10:19 19.1 12.4 65 90 0.8 1.7 1020.6 0.0000 0.0000
10:29 20.2 12.9 63 118 1.1 2.2 1020.5 0.0000 0.0000
10:40 20.8 12.8 60 98 1.1 2.5 1020.4 0.0000 0.0000
10:49 21 12.9 60 98 1.1 2.2 1020.5 0.0000 0.0000
10:59 21.8 13.4 59 79 0.8 1.7 1020.3 0.0000 0.0000
11:10 22.8 13.3 55 135 1.1 3.6 1020.1 0.0000 0.0000
11:20 23.3 13.8 55 79 0.8 1.7 1019.9 0.0000 0.0000
11:30 24.3 14.1 53 125 1.1 2.5 1019.8 0.0000 0.0000
11:40 24.6 13.8 51 76 1.1 3.3 1019.8 0.0000 0.0000
11:50 25 14.5 52 79 0.8 2.2 1019.8 0.0000 0.0000
12:00 25.5 14.6 51 120 1.1 2.2 1019.6 0.0000 0.0000
12:10 25.6 14.4 50 80 1.1 1.7 1019.5 0.0000 0.0000
12:21 25.7 14.2 49 77 0.8 2.2 1019.4 0.0000 0.0000
12:30 26 14.1 48 145 0.8 2.2 1019.2 0.0000 0.0000
12:40 26.8 14.9 48 120 0.8 1.7 1019.1 0.0000 0.0000
12:50 27.4 15.1 47 74 0.8 1.4 1018.9 0.0000 0.0000
13:01 28.1 15.4 46 112 0.8 1.7 1018.7 0.0000 0.0000
13:11 28.3 14.9 44 153 0.8 2.2 1018.6 0.0000 0.0000
13:20 28.2 14.8 44 90 0.8 1.4 1018.5 0.0000 0.0000
13:31 27.9 14.9 45 45 0.3 1.4 1018.2 0.0000 0.0000
13:41 28.2 15.1 45 90 0.3 1.1 1018.2 0.0000 0.0000
13:51 29.2 15.7 44 74 0.8 1.7 1018.1 0.0000 0.0000
14:01 30.1 15.8 42 198 0.8 1.7 1018 0.0000 0.0000
14:10 31 15 38 183 0.8 1.7 1017.9 0.0000 0.0000
14:20 31.2 14.8 37 90 0.8 1.7 1017.7 0.0000 0.0000
14:30 31.4 14.5 36 206 0.3 1.4 1017.5 0.0000 0.0000
14:41 31.7 14.4 35 335 0.8 1.4 1017.5 0.0000 0.0000
14:50 32.2 14.8 35 186 0.8 2.2 1017.3 0.0000 0.0000
15:00 32.9 14.5 33 175 0.3 1.1 1017.2 0.0000 0.0000
15:11 33.2 14.3 32 198 0.3 1.1 1017.1 0.0000 0.0000
15:21 33.2 13.8 31 45 0.8 1.4 1017 0.0000 0.0000
15:31 32.3 14 33 28 0.8 2.2 1017 0.0000 0.0000
15:41 31.3 14.5 36 48 0.8 1.7 1017 0.0000 0.0000
15:51 30 14.1 38 21 1.1 1.4 1017 0.0000 0.0000
16:01 28.8 13.9 40 23 1.1 1.7 1016.9 0.0000 0.0000
16:11 28.5 13.6 40 15 1.1 2.2 1016.9 0.0000 0.0000
16:26 30.1 13.8 37 357 0.8 1.4 1016.8 0.0000 0.0000
16:35 30.9 14.5 37 198 0.8 2.2 1016.8 0.0000 0.0000
16:45 30.9 14.5 37 53 0.8 1.7 1016.8 0.0000 0.0000
16:56 30.3 14.8 39 73 0.8 1.7 1016.6 0.0000 0.0000
17:06 29.7 14.7 40 65 0.8 1.4 1016.8 0.0000 0.0000
17:15 29.6 15.3 42 39 0.8 1.4 1016.8 0.0000 0.0000
17:24 30.1 15.4 41 45 0.8 1.4 1016.6 0.0000 0.0000
17:33 30.7 15.6 40 45 0.8 1.4 1016.6 0.0000 0.0000
17:44 31.1 15.9 40 20 0.8 1.7 1016.5 0.0000 0.0000
17:54 30.7 15.6 40 38 0.8 1.7 1016.4 0.0000 0.0000
18:04 29.8 15.1 41 16 1.1 1.7 1016.5 0.0000 0.0000
18:13 28.9 14.7 42 8 0.8 1.7 1016.5 0.0000 0.0000
18:24 28.1 14.7 44 15 1.1 1.7 1016.5 0.0000 0.0000
18:34 27.5 15.2 47 18 1.1 1.4 1016.6 0.0000 0.0000
18:44 26.8 14.9 48 22 0.8 1.7 1016.8 0.0000 0.0000
18:54 26.3 14.7 49 28 0.8 1.7 1016.8 0.0000 0.0000
19:04 26 14.8 50 25 0.8 1.4 1016.8 0.0000 0.0000
19:14 25.7 14.8 51 13 1.1 2.2 1016.8 0.0000 0.0000
19:24 25.4 14.5 51 19 0.8 1.7 1016.8 0.0000 0.0000
19:35 25.1 14.6 52 16 1.1 1.7 1016.9 0.0000 0.0000
19:45 24.8 14.6 53 19 0.8 2.2 1017 0.0000 0.0000
19:54 24.6 14.7 54 25 0.8 1.4 1016.9 0.0000 0.0000
20:05 24.3 14.7 55 47 0.8 1.7 1017 0.0000 0.0000
20:15 24 14.7 56 42 0.8 1.7 1017.1 0.0000 0.0000
20:25 23.6 14.6 57 30 0.3 1.1 1017.3 0.0000 0.0000
20:35 23.3 14.6 58 34 0.3 1.4 1017.3 0.0000 0.0000
20:45 23.1 14.9 60 90 0.3 1.4 1017.3 0.0000 0.0000
20:55 22.7 14.8 61 90 0.3 1.1 1017.3 0.0000 0.0000
21:05 22.4 14.8 62 29 0.8 1.7 1017.3 0.0000 0.0000
21:15 22.2 14.8 63 90 0.3 1.1 1017.4 0.0000 0.0000
21:26 21.9 14.8 64 55 0.3 1.1 1017.4 0.0000 0.0000
21:35 21.5 14.6 65 90 0.3 1.1 1017.4 0.0000 0.0000
21:45 20.9 14.3 66 90 0.8 1.4 1017.5 0.0000 0.0000
21:56 20.5 14.4 68 90 0.8 1.4 1017.7 0.0000 0.0000
22:06 19.9 14 69 90 0.8 1.1 1017.9 0.0000 0.0000
22:15 19.4 13.8 70 65 0.8 1.1 1017.9 0.0000 0.0000
22:26 19 13.6 71 90 0.3 1.1 1017.9 0.0000 0.0000
22:36 18.7 13.8 73 90 0.3 1.1 1017.9 0.0000 0.0000
22:46 18.3 13.6 74 90 0.3 1.1 1018 0.0000 0.0000
22:56 18.1 13.6 75 90 0.3 1.1 1018 0.0000 0.0000
23:06 17.9 13.4 75 90 0.3 1.1 1018 0.0000 0.0000
23:16 17.8 13.5 76 90 0.3 0.8 1018 0.0000 0.0000
23:26 17.7 13.4 76 90 0.3 1.4 1017.9 0.0000 0.0000
23:36 17.5 13.4 77 90 0.3 0.8 1017.8 0.0000 0.0000
23:47 17.4 13.5 78 66 0.8 1.1 1017.8 0.0000 0.0000
23:56 17.3 13.4 78 90 0.3 1.1 1017.9 0.0000

TAGESSTATISTIK

2019-08-17
TEMPERATUR
MITTEL
19.1
MAXIMUM
33.2
15:11
MINIMUM
7.4
06:07
LUFTDRUCK
MITTEL
1019.3
MAXIMUM
1021.8
00:45
MINIMUM
1016.4
17:54
TAUPUNKT
MITTEL
11.8
MAXIMUM
15.9
17:44
MINIMUM
6.3
05:57
FEUCHTIGKEIT
MITTEL
67
MAXIMUM
96
07:27
MINIMUM
31
15:21
WINDSTÄRKE
MITTEL
0.6
MAXIMUM
1.1
10:29
WINDBÖE
MITTEL
1.4
MAXIMUM
3.6
11:10
WINDRICHTUNG
VORHERRSCHENDE
O
61.3%
N
9.2
NO
17.6
O
61.3
SO
6.3
S
4.2
SW
0.7
W
0.0
NW
0.7
NIEDERSCHLAG
REGEN STUNDE
0.0
REGEN TAG
0.0
TEMPERATUR (°C)
MINIMUM
7.4
MAXIMUM
33.2
MITTEL
19.1
LUFTDRUCK (hpa)
MINIMUM
1016.4
MAXIMUM
1021.8
MITTEL
1019.3
MESSGERÄT